Terminal Aerodrome Forecast
Issued by NWS Pueblo, CO

Home | Current Version | Previous Version | Text Only | Print | Product List | Glossary On
Versions: 1 2 3 4 5 6 7 8 9 10 11 12 13 14 15 16 17 18 19 20 21 22 23 24 25 26 27 28 29 30 31 32 33 34 35 36 37 38
000
FTUS45 KPUB 302341
TAFCOS
TAF
KCOS 302341Z 3100/3124 21015KT P6SM SCT050 SCT080 BKN150
     FM310200 16008KT P6SM SCT100 BKN150
     FM310800 04006KT P6SM SCT150
     FM311800 12008KT P6SM SCT100
     FM312100 30015G25KT P6SM VCTS SCT100CB BKN200=

USA.gov is the U.S. government's official web portal to all federal, state and local government web resources and services.